Time;durP1;ratioP1;P1;durP2;ratioP2;P2;SDS_P1;SDS_P2;PMS_P1;PMS_P2;Temp;Humidity;BMP_temperature;BMP_pressure;BME280_temperature;BME280_humidity;BME280_pressure;Samples;Min_cycle;Max_cycle;Signal;HPM_P1;HPM_P2
2024/01/19 00:01:39;;;;;;;19.00;11.10;;;-2.10;99.90;;;;;;5072354;28;20196;-78
2024/01/19 00:04:05;;;;;;;19.37;11.13;;;-2.10;99.90;;;;;;5072794;28;20168;-78
2024/01/19 00:06:30;;;;;;;18.60;10.47;;;-2.30;99.90;;;;;;5073562;28;20542;-78
2024/01/19 00:08:57;;;;;;;18.17;10.80;;;-2.40;99.90;;;;;;5072634;28;20650;-78
2024/01/19 00:11:23;;;;;;;17.70;10.17;;;-2.40;99.90;;;;;;5073469;28;20183;-78
2024/01/19 00:13:49;;;;;;;23.13;11.23;;;-2.40;99.90;;;;;;5072580;28;20270;-78
2024/01/19 00:16:14;;;;;;;20.50;10.43;;;-2.50;99.90;;;;;;5073458;28;20177;-78
2024/01/19 00:18:40;;;;;;;18.87;11.27;;;-2.50;99.90;;;;;;5073519;28;20196;-78
2024/01/19 00:21:05;;;;;;;15.97;9.60;;;-2.50;99.90;;;;;;5072779;28;20249;-78
2024/01/19 00:23:32;;;;;;;18.13;9.97;;;-2.60;99.90;;;;;;5073406;28;20169;-78
2024/01/19 00:25:57;;;;;;;14.93;9.30;;;-2.60;99.90;;;;;;5073453;28;20229;-78
2024/01/19 00:28:23;;;;;;;17.10;9.77;;;-2.60;99.90;;;;;;5071891;28;20198;-78
2024/01/19 00:30:48;;;;;;;17.77;9.93;;;-2.60;99.90;;;;;;5072662;28;20271;-78
2024/01/19 00:33:14;;;;;;;19.73;10.13;;;-2.70;99.90;;;;;;5071938;28;20184;-78
2024/01/19 00:35:39;;;;;;;17.27;10.30;;;-2.80;99.90;;;;;;5072250;28;20179;-78
2024/01/19 00:38:05;;;;;;;17.27;10.47;;;-2.90;99.90;;;;;;5071720;28;20206;-78
2024/01/19 00:40:30;;;;;;;15.77;9.83;;;-2.90;99.90;;;;;;5071175;28;20218;-78
2024/01/19 00:42:56;;;;;;;16.10;9.83;;;-2.90;99.90;;;;;;5071838;28;20255;-78
2024/01/19 00:45:22;;;;;;;19.40;10.20;;;-2.90;99.90;;;;;;5071363;28;20220;-78
2024/01/19 00:47:47;;;;;;;16.83;10.20;;;-2.90;99.90;;;;;;5071932;28;20667;-78
2024/01/19 00:50:13;;;;;;;17.43;10.20;;;-2.80;99.90;;;;;;5072589;28;20274;-78
2024/01/19 00:52:39;;;;;;;21.17;11.77;;;-2.80;99.90;;;;;;5073091;28;20183;-78
2024/01/19 00:55:05;;;;;;;20.53;11.53;;;-2.70;99.90;;;;;;5071620;28;20212;-78
2024/01/19 00:57:31;;;;;;;18.13;11.47;;;-2.70;99.90;;;;;;5072601;28;20577;-78
2024/01/19 00:59:56;;;;;;;18.70;10.80;;;-2.60;99.90;;;;;;5072617;28;20195;-78
2024/01/19 01:02:22;;;;;;;19.97;10.97;;;-2.50;99.90;;;;;;5072581;28;20167;-78
2024/01/19 01:04:48;;;;;;;19.67;10.43;;;-2.50;99.90;;;;;;5071774;28;20182;-78
2024/01/19 01:07:13;;;;;;;16.83;10.13;;;-2.60;99.90;;;;;;5072709;28;20664;-78
2024/01/19 01:09:39;;;;;;;23.33;11.07;;;-2.60;99.90;;;;;;5071158;28;20210;-78
2024/01/19 01:12:05;;;;;;;19.00;10.83;;;-2.70;99.90;;;;;;5070969;28;20707;-78
2024/01/19 01:14:31;;;;;;;18.63;10.40;;;-2.70;99.90;;;;;;5072521;28;20201;-78
2024/01/19 01:16:56;;;;;;;19.60;10.77;;;-2.70;99.90;;;;;;5071151;28;20198;-78
2024/01/19 01:19:22;;;;;;;20.60;10.60;;;-2.60;99.90;;;;;;5072491;28;20237;-78
2024/01/19 01:21:47;;;;;;;18.10;11.30;;;-2.60;99.90;;;;;;5070778;28;20172;-78
2024/01/19 01:24:13;;;;;;;20.27;11.17;;;-2.60;99.90;;;;;;5071280;28;20166;-78
2024/01/19 01:26:38;;;;;;;21.10;11.43;;;-2.60;99.90;;;;;;5072580;28;20170;-78
2024/01/19 01:29:04;;;;;;;17.93;10.40;;;-2.60;99.90;;;;;;5071453;28;20241;-78
2024/01/19 01:31:30;;;;;;;17.00;10.43;;;-2.60;99.90;;;;;;5070882;28;20183;-78
2024/01/19 01:33:55;;;;;;;19.00;10.80;;;-2.70;99.90;;;;;;5071253;28;20180;-78
2024/01/19 01:36:21;;;;;;;20.20;10.87;;;-2.70;99.90;;;;;;5072466;28;20215;-78
2024/01/19 01:38:47;;;;;;;17.70;10.90;;;-2.70;99.90;;;;;;5071118;28;20176;-78
2024/01/19 01:41:12;;;;;;;17.37;11.23;;;-2.70;99.90;;;;;;5071960;28;20748;-78
2024/01/19 01:43:38;;;;;;;20.07;11.77;;;-2.70;99.90;;;;;;5072276;28;20203;-78
2024/01/19 01:46:04;;;;;;;20.03;12.00;;;-2.60;99.90;;;;;;5070953;28;20179;-78
2024/01/19 01:48:29;;;;;;;19.73;12.00;;;-2.70;99.90;;;;;;5072372;28;20280;-78
2024/01/19 01:50:56;;;;;;;19.77;10.70;;;-2.80;99.90;;;;;;5070397;28;20188;-78
2024/01/19 01:53:22;;;;;;;20.53;11.77;;;-2.70;99.90;;;;;;5071271;28;20318;-78
2024/01/19 01:55:48;;;;;;;18.80;11.33;;;-2.70;99.90;;;;;;5072590;28;20187;-78
2024/01/19 01:58:16;;;;;;;19.37;11.50;;;-2.80;99.90;;;;;;5075006;28;20215;-78
2024/01/19 02:00:45;;;;;;;21.17;11.90;;;-2.80;99.90;;;;;;5074349;28;20195;-78
2024/01/19 02:03:12;;;;;;;17.03;10.77;;;-3.00;99.90;;;;;;5076244;28;20532;-78
2024/01/19 02:05:38;;;;;;;20.73;12.03;;;-3.10;99.90;;;;;;5076336;28;20174;-78
2024/01/19 02:08:03;;;;;;;22.00;12.17;;;-3.10;99.90;;;;;;5075784;28;20198;-78
2024/01/19 02:10:29;;;;;;;20.47;12.00;;;-3.10;99.90;;;;;;5075611;28;20182;-78
2024/01/19 02:12:55;;;;;;;17.50;10.97;;;-3.20;99.90;;;;;;5076135;28;20182;-78
2024/01/19 02:15:22;;;;;;;22.90;12.93;;;-3.10;99.90;;;;;;5075977;28;20180;-78
2024/01/19 02:17:49;;;;;;;20.73;11.97;;;-3.10;99.90;;;;;;5075935;28;20204;-78
2024/01/19 02:20:15;;;;;;;25.07;12.27;;;-3.00;99.90;;;;;;5075343;28;20200;-78
2024/01/19 02:22:43;;;;;;;22.20;12.57;;;-2.90;99.90;;;;;;5075559;28;20172;-78
2024/01/19 02:25:09;;;;;;;20.07;12.27;;;-2.90;99.90;;;;;;5074240;28;20174;-78
2024/01/19 02:27:34;;;;;;;23.27;12.37;;;-2.80;99.90;;;;;;5074270;28;20306;-78
2024/01/19 02:30:01;;;;;;;19.57;12.73;;;-2.90;99.90;;;;;;5075471;28;20178;-78
2024/01/19 02:32:27;;;;;;;23.43;12.57;;;-2.90;99.90;;;;;;5073860;28;20192;-78
2024/01/19 02:34:53;;;;;;;21.47;12.30;;;-2.90;99.90;;;;;;5075667;28;20177;-78
2024/01/19 02:37:19;;;;;;;19.97;11.70;;;-2.90;99.90;;;;;;5073918;28;20207;-78
2024/01/19 02:39:44;;;;;;;24.07;14.00;;;-2.90;99.90;;;;;;5073798;28;20200;-78
2024/01/19 02:42:10;;;;;;;22.93;14.00;;;-2.80;99.90;;;;;;5075204;28;20174;-78
2024/01/19 02:44:36;;;;;;;27.60;14.13;;;-2.80;99.90;;;;;;5074224;28;20292;-78
2024/01/19 02:47:01;;;;;;;26.23;14.97;;;-2.80;99.90;;;;;;5075471;28;20187;-78
2024/01/19 02:49:27;;;;;;;27.27;15.47;;;-2.70;99.90;;;;;;5073692;28;20310;-78
2024/01/19 02:51:52;;;;;;;27.77;15.53;;;-2.70;99.90;;;;;;5075007;28;20277;-78
2024/01/19 02:54:18;;;;;;;29.17;14.77;;;-2.80;99.90;;;;;;5073892;28;20635;-78
2024/01/19 02:56:43;;;;;;;27.00;15.60;;;-2.70;99.90;;;;;;5073595;28;20217;-78
2024/01/19 02:59:09;;;;;;;28.33;16.47;;;-2.80;99.90;;;;;;5073833;28;20180;-78
2024/01/19 03:01:35;;;;;;;29.33;16.43;;;-2.80;99.90;;;;;;5074597;28;20241;-78
2024/01/19 03:04:01;;;;;;;28.90;15.73;;;-2.80;99.90;;;;;;5074045;28;20217;-78
2024/01/19 03:06:27;;;;;;;31.37;16.57;;;-2.80;99.90;;;;;;5073085;28;20211;-78
2024/01/19 03:08:52;;;;;;;33.30;17.37;;;-2.80;99.90;;;;;;5073385;28;20198;-78
2024/01/19 03:11:18;;;;;;;35.43;18.13;;;-2.80;99.90;;;;;;5073043;28;20175;-78
2024/01/19 03:13:43;;;;;;;31.13;16.50;;;-2.90;99.90;;;;;;5075020;28;20232;-78
2024/01/19 03:16:09;;;;;;;32.53;16.47;;;-2.90;99.90;;;;;;5073911;28;20700;-78
2024/01/19 03:18:34;;;;;;;31.03;17.27;;;-2.90;99.90;;;;;;5073450;28;20243;-78
2024/01/19 03:21:00;;;;;;;33.73;18.43;;;-3.00;99.90;;;;;;5072863;28;20310;-78
2024/01/19 03:23:25;;;;;;;33.63;17.57;;;-2.90;99.90;;;;;;5074819;28;20173;-78
2024/01/19 03:25:51;;;;;;;35.30;17.57;;;-2.90;99.90;;;;;;5074816;28;20165;-78
2024/01/19 03:28:17;;;;;;;36.20;19.17;;;-3.00;99.90;;;;;;5074568;28;20556;-78
2024/01/19 03:30:42;;;;;;;35.10;18.07;;;-2.90;99.90;;;;;;5072988;28;20173;-78
2024/01/19 03:33:08;;;;;;;26.87;16.43;;;-2.90;99.90;;;;;;5074611;28;20173;-78
2024/01/19 03:35:34;;;;;;;34.73;17.40;;;-2.90;99.90;;;;;;5073108;28;20216;-78
2024/01/19 03:38:00;;;;;;;29.60;17.43;;;-2.90;99.90;;;;;;5073038;28;20197;-78
2024/01/19 03:40:25;;;;;;;31.00;16.43;;;-2.90;99.90;;;;;;5072331;28;20205;-78
2024/01/19 03:42:51;;;;;;;34.07;17.70;;;-2.90;99.90;;;;;;5074109;28;20178;-78
2024/01/19 03:45:16;;;;;;;33.37;17.83;;;-2.90;99.90;;;;;;5074233;28;20166;-78
2024/01/19 03:47:44;;;;;;;31.20;16.57;;;-2.90;99.90;;;;;;5074386;28;20205;-78
2024/01/19 03:50:10;;;;;;;31.23;17.17;;;-2.90;99.90;;;;;;5073916;28;20180;-77
2024/01/19 03:52:37;;;;;;;33.20;16.80;;;-2.80;99.90;;;;;;5074208;28;20190;-78
2024/01/19 03:55:04;;;;;;;31.63;17.03;;;-2.80;99.90;;;;;;5072626;28;20606;-78
2024/01/19 03:57:30;;;;;;;32.30;17.30;;;-2.80;99.90;;;;;;5072853;28;20296;-78
2024/01/19 03:59:56;;;;;;;33.13;18.67;;;-2.80;99.90;;;;;;5073855;28;20364;-78
2024/01/19 04:02:21;;;;;;;33.70;17.43;;;-2.70;99.90;;;;;;5073506;28;20646;-78
2024/01/19 04:04:48;;;;;;;31.07;17.40;;;-2.80;99.90;;;;;;5074060;28;20176;-78
2024/01/19 04:07:14;;;;;;;29.10;16.03;;;-2.80;99.90;;;;;;5073882;28;20186;-78
2024/01/19 04:09:39;;;;;;;27.70;15.73;;;-2.90;99.90;;;;;;5073875;28;20184;-78
2024/01/19 04:12:11;;;;;;;29.27;16.00;;;-3.00;99.90;;;;;;5073713;28;20185;-78
2024/01/19 04:14:37;;;;;;;30.53;17.33;;;-3.20;99.90;;;;;;5073483;28;20188;-78
2024/01/19 04:17:02;;;;;;;30.23;17.10;;;-3.30;99.90;;;;;;5072404;28;20189;-78
2024/01/19 04:19:28;;;;;;;28.87;16.43;;;-3.40;99.90;;;;;;5072514;28;20202;-78
2024/01/19 04:21:53;;;;;;;30.13;17.17;;;-3.40;99.90;;;;;;5071958;28;20221;-78
2024/01/19 04:24:19;;;;;;;30.60;16.67;;;-3.40;99.90;;;;;;5073762;28;20635;-79
2024/01/19 04:26:44;;;;;;;30.93;16.23;;;-3.40;99.90;;;;;;5073607;28;20557;-78
2024/01/19 04:29:10;;;;;;;30.93;16.97;;;-3.60;99.90;;;;;;5073545;28;20166;-78
2024/01/19 04:31:35;;;;;;;32.77;18.03;;;-3.60;99.90;;;;;;5073114;28;20277;-78
2024/01/19 04:34:01;;;;;;;31.53;17.17;;;-3.70;99.90;;;;;;5073578;28;20182;-78
2024/01/19 04:36:26;;;;;;;28.97;15.93;;;-3.70;99.90;;;;;;5073384;28;20174;-78
2024/01/19 04:38:52;;;;;;;35.60;17.23;;;-3.70;99.90;;;;;;5073457;28;20181;-78
2024/01/19 04:41:18;;;;;;;29.43;16.33;;;-3.70;99.90;;;;;;5071655;28;20198;-78
2024/01/19 04:43:43;;;;;;;31.10;16.43;;;-3.90;99.90;;;;;;5073071;28;20157;-78
2024/01/19 04:46:09;;;;;;;30.07;16.37;;;-3.90;99.90;;;;;;5073092;28;20173;-78
2024/01/19 04:48:34;;;;;;;30.50;15.37;;;-4.00;99.90;;;;;;5073074;28;20320;-78
2024/01/19 04:51:00;;;;;;;31.63;15.90;;;-4.00;99.90;;;;;;5072545;28;20642;-78
2024/01/19 04:53:26;;;;;;;32.90;16.87;;;-3.90;99.90;;;;;;5073139;28;20190;-78
2024/01/19 04:55:51;;;;;;;30.53;15.83;;;-4.00;99.90;;;;;;5071586;28;20219;-78
2024/01/19 04:58:17;;;;;;;27.80;16.00;;;-4.00;99.90;;;;;;5123339;22;20237;-83
2024/01/19 05:00:42;;;;;;;29.27;15.97;;;-4.00;99.90;;;;;;5072904;28;20205;-83
2024/01/19 05:03:08;;;;;;;30.10;16.17;;;-4.00;99.90;;;;;;5056103;28;20199;-82
2024/01/19 05:05:33;;;;;;;27.80;15.63;;;-4.00;99.90;;;;;;5056045;28;20659;-83
2024/01/19 05:08:00;;;;;;;30.20;16.10;;;-4.00;99.90;;;;;;5073513;28;20185;-83
2024/01/19 05:10:26;;;;;;;26.60;15.07;;;-4.10;99.90;;;;;;5055002;28;20184;-83
2024/01/19 05:12:51;;;;;;;27.70;15.60;;;-4.10;99.90;;;;;;5073891;28;20165;-82
2024/01/19 05:15:17;;;;;;;24.87;13.90;;;-4.10;99.90;;;;;;5055658;28;20178;-82
2024/01/19 05:17:42;;;;;;;30.23;15.73;;;-4.10;99.90;;;;;;5073589;28;20197;-83
2024/01/19 05:20:09;;;;;;;27.43;15.37;;;-4.20;99.90;;;;;;5073381;28;20192;-82
2024/01/19 05:22:34;;;;;;;29.77;15.00;;;-4.20;99.90;;;;;;5055947;28;20177;-82
2024/01/19 05:25:01;;;;;;;29.40;14.67;;;-4.30;99.90;;;;;;5056142;28;20169;-83
2024/01/19 05:27:27;;;;;;;27.97;15.13;;;-4.30;99.90;;;;;;5073495;28;20212;-82
2024/01/19 05:29:52;;;;;;;27.93;14.17;;;-4.30;99.90;;;;;;5055001;28;20216;-83
2024/01/19 05:32:18;;;;;;;25.57;14.03;;;-4.40;99.90;;;;;;5055613;28;20184;-83
2024/01/19 05:34:44;;;;;;;25.27;13.93;;;-4.40;54.90;;;;;;5055920;28;20539;-83
2024/01/19 05:37:09;;;;;;;27.40;14.03;;;-4.50;9.80;;;;;;5055903;28;20193;-83
2024/01/19 05:39:35;;;;;;;23.53;13.20;;;-4.60;1.00;;;;;;5055340;28;20177;-83
2024/01/19 05:42:00;;;;;;;25.63;13.57;;;-4.70;1.00;;;;;;5073320;28;20173;-83
2024/01/19 05:44:26;;;;;;;28.57;14.83;;;-4.70;1.00;;;;;;5074117;28;20165;-83
2024/01/19 05:46:51;;;;;;;25.27;13.97;;;-4.70;1.00;;;;;;5074458;28;20171;-83
2024/01/19 05:49:17;;;;;;;26.87;13.47;;;-4.70;1.00;;;;;;5056217;28;20173;-83
2024/01/19 05:51:43;;;;;;;25.03;14.17;;;-4.90;1.00;;;;;;5055325;28;20173;-83
2024/01/19 05:54:08;;;;;;;26.93;13.40;;;-5.00;1.00;;;;;;5056124;28;20204;-83
2024/01/19 05:56:34;;;;;;;27.27;14.63;;;-5.20;1.00;;;;;;5074134;28;20177;-82
2024/01/19 05:59:00;;;;;;;24.83;13.63;;;-5.30;1.00;;;;;;5056068;28;20300;-81
2024/01/19 06:01:25;;;;;;;27.47;13.83;;;-5.40;1.00;;;;;;5060343;28;20204;-79
2024/01/19 06:03:51;;;;;;;24.93;13.13;;;-5.30;1.00;;;;;;5074212;28;20222;-81
2024/01/19 06:06:16;;;;;;;27.33;13.93;;;-5.40;1.00;;;;;;5056484;28;20181;-81
2024/01/19 06:08:42;;;;;;;17.33;9.60;;;-5.50;1.00;;;;;;5073527;28;20196;-80
2024/01/19 06:11:07;;;;;;;28.63;13.40;;;-4.60;99.90;;;;;;5055126;28;20173;-78
2024/01/19 06:13:33;;;;;;;24.60;12.73;;;-3.20;99.90;;;;;;5075555;28;20181;-81
2024/01/19 06:16:00;;;;;;;22.17;12.80;;;-2.40;99.90;;;;;;5075202;28;20180;-82
2024/01/19 06:18:26;;;;;;;25.47;13.27;;;-1.80;99.90;;;;;;5057808;28;20199;-83
2024/01/19 06:20:51;;;;;;;24.03;13.87;;;-1.60;99.90;;;;;;5057820;28;20618;-83
2024/01/19 06:23:17;;;;;;;31.30;16.87;;;-2.40;99.90;;;;;;5058763;28;20175;-84
2024/01/19 06:25:43;;;;;;;35.73;17.37;;;-3.10;1.00;;;;;;5058987;28;20224;-84
2024/01/19 06:28:10;;;;;;;27.63;15.53;;;-4.00;99.90;;;;;;5060832;28;20238;-85
2024/01/19 06:30:35;;;;;;;30.47;15.43;;;-4.90;99.90;;;;;;5079944;28;20216;-83
2024/01/19 06:33:02;;;;;;;27.60;15.40;;;-5.60;99.90;;;;;;5063157;28;20260;-82
2024/01/19 06:35:28;;;;;;;27.73;14.97;;;-5.90;1.00;;;;;;5081384;28;20169;-82
2024/01/19 06:37:54;;;;;;;28.03;15.00;;;-6.10;99.90;;;;;;5082579;28;20219;-82
2024/01/19 06:40:19;;;;;;;27.10;14.23;;;-6.30;1.00;;;;;;5057356;28;20220;-82
2024/01/19 06:42:45;;;;;;;29.03;14.90;;;-6.10;99.90;;;;;;5056319;28;20165;-82
2024/01/19 06:45:11;;;;;;;29.27;15.50;;;-6.40;1.00;;;;;;5076259;28;20218;-82
2024/01/19 06:47:37;;;;;;;28.30;14.63;;;-6.50;1.00;;;;;;5076128;28;20189;-82
2024/01/19 06:50:03;;;;;;;25.90;14.20;;;-6.60;1.00;;;;;;5057818;28;20204;-82
2024/01/19 06:52:29;;;;;;;29.50;13.63;;;-6.60;99.90;;;;;;5075423;28;20177;-82
2024/01/19 06:54:54;;;;;;;24.93;12.17;;;-6.60;99.90;;;;;;5075668;28;20307;-83
2024/01/19 06:57:20;;;;;;;25.23;12.50;;;-6.70;42.90;;;;;;5057391;28;20200;-82
2024/01/19 06:59:47;;;;;;;23.17;12.67;;;-6.70;99.90;;;;;;5057845;28;20197;-81
2024/01/19 07:02:13;;;;;;;24.53;12.77;;;-6.60;1.00;;;;;;5057405;28;20255;-82
2024/01/19 07:04:38;;;;;;;27.20;13.30;;;-6.50;1.00;;;;;;5057635;28;20175;-79
2024/01/19 07:07:04;;;;;;;25.33;12.30;;;-6.50;1.00;;;;;;5075291;28;20251;-81
2024/01/19 07:09:30;;;;;;;30.53;14.20;;;-6.30;1.00;;;;;;5075352;28;20183;-81
2024/01/19 07:11:55;;;;;;;26.30;12.57;;;-6.10;1.00;;;;;;5057143;28;20235;-81
2024/01/19 07:14:21;;;;;;;23.57;12.50;;;-5.80;1.00;;;;;;5075478;28;20222;-81
2024/01/19 07:16:46;;;;;;;28.03;13.57;;;-5.70;1.00;;;;;;5075270;28;20254;-81
2024/01/19 07:19:12;;;;;;;26.20;12.97;;;-5.60;16.30;;;;;;5075613;28;20621;-81
2024/01/19 07:21:42;;;;;;;25.17;12.93;;;-5.50;99.90;;;;;;5056904;28;20195;-82
2024/01/19 07:24:09;;;;;;;23.93;12.53;;;-5.50;54.50;;;;;;5056817;28;20601;-84
2024/01/19 07:26:36;;;;;;;24.47;13.53;;;-5.50;24.00;;;;;;5074722;28;20264;-81
2024/01/19 07:29:06;;;;;;;23.83;12.23;;;-5.40;99.90;;;;;;5074156;28;20193;-81
2024/01/19 07:31:34;;;;;;;27.70;13.93;;;-5.20;99.90;;;;;;5056348;28;20555;-81
2024/01/19 07:34:00;;;;;;;26.00;12.23;;;-5.10;99.90;;;;;;5056459;28;20184;-81
2024/01/19 07:36:26;;;;;;;26.10;13.03;;;-5.00;99.90;;;;;;5056546;28;20176;-81
2024/01/19 07:38:52;;;;;;;28.43;14.33;;;-5.00;99.90;;;;;;5056593;28;20196;-81
2024/01/19 07:41:17;;;;;;;29.27;14.63;;;-5.00;99.90;;;;;;5073669;28;20192;-81
2024/01/19 07:43:43;;;;;;;30.70;14.50;;;-4.90;99.90;;;;;;5074502;28;20169;-82
2024/01/19 07:46:11;;;;;;;29.67;14.23;;;-4.80;99.90;;;;;;5074533;28;20592;-81
2024/01/19 07:48:36;;;;;;;28.90;15.27;;;-4.60;99.90;;;;;;5075140;28;20197;-81
2024/01/19 07:51:03;;;;;;;32.23;14.63;;;-4.40;99.90;;;;;;5074454;28;20183;-82
2024/01/19 07:53:28;;;;;;;29.30;15.47;;;-4.30;99.90;;;;;;5074712;28;20176;-82
2024/01/19 07:55:54;;;;;;;30.87;14.40;;;-4.10;99.90;;;;;;5057224;28;20169;-81
2024/01/19 07:58:20;;;;;;;29.47;15.13;;;-4.00;99.90;;;;;;5074218;28;20591;-82
2024/01/19 08:00:45;;;;;;;27.27;14.47;;;-4.00;99.90;;;;;;5056184;28;20236;-83
2024/01/19 08:03:11;;;;;;;29.53;14.80;;;-3.80;99.90;;;;;;5057050;28;20211;-82
2024/01/19 08:05:37;;;;;;;27.87;14.40;;;-3.70;99.90;;;;;;5075239;28;20176;-82
2024/01/19 08:08:02;;;;;;;31.47;15.43;;;-3.60;99.90;;;;;;5074965;28;20682;-81
2024/01/19 08:10:31;;;;;;;29.27;14.67;;;-3.60;99.90;;;;;;5056662;28;20199;-82
2024/01/19 08:12:58;;;;;;;28.73;13.83;;;-3.60;99.90;;;;;;5056404;28;20322;-81
2024/01/19 08:15:23;;;;;;;29.70;14.57;;;-3.60;99.90;;;;;;5057089;28;20668;-81
2024/01/19 08:17:49;;;;;;;31.03;15.40;;;-3.50;99.90;;;;;;5057126;28;20197;-82
2024/01/19 08:20:14;;;;;;;27.07;14.53;;;-3.40;99.90;;;;;;5056202;28;20196;-81
2024/01/19 08:22:40;;;;;;;32.77;15.23;;;-3.40;99.90;;;;;;5075465;28;20188;-83
2024/01/19 08:25:06;;;;;;;29.83;15.37;;;-3.30;99.90;;;;;;5074491;28;20176;-81
2024/01/19 08:27:31;;;;;;;30.13;14.90;;;-3.00;99.90;;;;;;5074274;28;20608;-81
2024/01/19 08:29:57;;;;;;;25.77;13.87;;;-2.80;99.90;;;;;;5074582;28;20209;-82
2024/01/19 08:32:23;;;;;;;30.30;14.30;;;-2.70;99.90;;;;;;5056418;28;20268;-82
2024/01/19 08:34:49;;;;;;;25.67;13.90;;;-2.80;99.90;;;;;;5056835;28;20185;-81
2024/01/19 08:37:14;;;;;;;63.20;35.43;;;-2.70;99.90;;;;;;5075271;28;20193;-82
2024/01/19 08:39:40;;;;;;;28.50;17.07;;;-2.70;99.90;;;;;;5056740;28;20174;-85
2024/01/19 08:42:06;;;;;;;29.67;14.70;;;-3.00;1.00;;;;;;5056870;28;20261;-81
2024/01/19 08:44:32;;;;;;;30.63;15.70;;;-2.90;91.10;;;;;;5057322;28;20173;-82
2024/01/19 08:46:57;;;;;;;29.63;16.47;;;-2.90;99.90;;;;;;5057373;28;20549;-82
2024/01/19 08:49:24;;;;;;;31.17;16.97;;;-3.10;99.90;;;;;;5075167;28;20193;-82
2024/01/19 08:51:51;;;;;;;29.73;16.17;;;-3.30;91.40;;;;;;5057027;28;20641;-82
2024/01/19 08:54:18;;;;;;;27.47;15.93;;;-3.30;99.90;;;;;;5075512;28;20217;-82
2024/01/19 08:56:43;;;;;;;31.53;16.03;;;-3.20;99.90;;;;;;5075228;28;20186;-82
2024/01/19 08:59:09;;;;;;;28.47;15.10;;;-3.20;99.90;;;;;;5073908;28;20204;-82
2024/01/19 09:01:34;;;;;;;28.97;15.40;;;-3.00;99.90;;;;;;5074109;28;20611;-84
2024/01/19 09:04:00;;;;;;;26.13;14.13;;;-2.90;99.90;;;;;;5056229;28;20169;-82
2024/01/19 09:06:25;;;;;;;31.37;16.10;;;-2.80;99.90;;;;;;5073744;28;20166;-81
2024/01/19 09:08:51;;;;;;;29.13;14.83;;;-3.00;99.90;;;;;;5073780;28;20196;-82
2024/01/19 09:11:17;;;;;;;30.13;15.93;;;-2.90;99.90;;;;;;5056260;28;20178;-82
2024/01/19 09:13:42;;;;;;;29.47;15.23;;;-2.70;99.90;;;;;;5074733;28;20239;-82
2024/01/19 09:16:09;;;;;;;28.57;13.93;;;-2.60;99.90;;;;;;5056567;28;20208;-82
2024/01/19 09:18:36;;;;;;;25.73;12.17;;;-2.50;99.90;;;;;;5074649;28;20678;-82
2024/01/19 09:21:02;;;;;;;25.30;12.37;;;-2.30;99.90;;;;;;5073964;28;20570;-82
2024/01/19 09:23:28;;;;;;;23.30;12.20;;;-2.20;99.90;;;;;;5057275;28;20173;-82
2024/01/19 09:25:53;;;;;;;27.07;14.20;;;-2.20;99.90;;;;;;5057676;28;20174;-84
2024/01/19 09:28:19;;;;;;;29.23;14.80;;;-2.20;99.90;;;;;;5075947;28;20669;-81
2024/01/19 09:30:44;;;;;;;26.93;14.27;;;-2.30;99.90;;;;;;5055974;28;20719;-85
2024/01/19 09:33:10;;;;;;;26.07;13.03;;;-2.30;99.90;;;;;;5076803;28;20174;-79
2024/01/19 09:35:37;;;;;;;29.30;13.00;;;-2.20;99.90;;;;;;5059126;28;20210;-83
2024/01/19 09:38:02;;;;;;;24.97;13.73;;;-2.00;99.90;;;;;;5076857;28;20190;-80
2024/01/19 09:40:28;;;;;;;29.50;15.30;;;-1.80;99.90;;;;;;5058701;28;20210;-80
2024/01/19 09:42:55;;;;;;;29.97;14.87;;;-1.60;99.90;;;;;;5058053;28;20175;-80
2024/01/19 09:45:26;;;;;;;27.03;13.87;;;-1.50;99.90;;;;;;5077345;28;20227;-80
2024/01/19 09:48:16;;;;;;;27.87;13.97;;;-1.60;99.90;;;;;;5075935;28;20186;-82
2024/01/19 09:50:46;;;;;;;45.03;17.30;;;-1.60;99.90;;;;;;5057681;28;20273;-80
2024/01/19 09:53:22;;;;;;;38.97;16.93;;;-1.70;99.90;;;;;;5061412;28;20681;-80
2024/01/19 09:55:48;;;;;;;29.70;13.80;;;-1.50;99.90;;;;;;5073983;28;20249;-80
2024/01/19 09:58:14;;;;;;;33.60;15.03;;;-1.50;99.90;;;;;;5056021;28;20285;-80
2024/01/19 10:00:40;;;;;;;27.50;13.50;;;-1.60;99.90;;;;;;5072741;28;20192;-83
2024/01/19 10:03:09;;;;;;;23.80;12.30;;;-1.60;99.90;;;;;;5055353;28;20170;-80
2024/01/19 10:05:38;;;;;;;20.50;10.77;;;-1.50;99.90;;;;;;5073269;28;20652;-82
2024/01/19 10:08:04;;;;;;;20.67;10.53;;;-1.50;99.90;;;;;;5073533;28;20195;-80
2024/01/19 10:10:30;;;;;;;20.10;11.03;;;-1.40;99.90;;;;;;5072699;28;20178;-80
2024/01/19 10:12:55;;;;;;;22.53;11.03;;;-1.40;99.90;;;;;;5073438;28;20525;-80
2024/01/19 10:15:21;;;;;;;22.63;11.07;;;-1.30;99.90;;;;;;5055422;28;20172;-80
2024/01/19 10:17:47;;;;;;;19.37;10.80;;;-1.20;99.90;;;;;;5076151;28;20633;-80
2024/01/19 10:20:14;;;;;;;20.43;10.90;;;-1.20;99.90;;;;;;5076316;28;20257;-82
2024/01/19 10:22:40;;;;;;;20.37;10.50;;;-1.20;99.90;;;;;;5059052;28;20266;-80
2024/01/19 10:25:08;;;;;;;18.57;10.47;;;-1.10;99.90;;;;;;5059296;28;20251;-80
2024/01/19 10:27:46;;;;;;;19.70;10.70;;;-1.10;99.90;;;;;;5076506;28;20188;-81
2024/01/19 10:30:12;;;;;;;20.03;11.13;;;-1.10;99.90;;;;;;5076477;28;20190;-80
2024/01/19 10:32:39;;;;;;;23.00;11.93;;;-1.10;99.90;;;;;;5059007;28;20176;-80
2024/01/19 10:35:10;;;;;;;19.10;10.87;;;-0.90;99.90;;;;;;5077182;28;20175;-79
2024/01/19 10:37:36;;;;;;;17.23;10.13;;;-0.60;99.90;;;;;;5076799;28;20317;-80
2024/01/19 10:40:22;;;;;;;18.77;10.97;;;-0.50;99.90;;;;;;5058177;28;20210;-80
2024/01/19 10:42:50;;;;;;;21.03;11.17;;;-0.40;36.30;;;;;;5058376;28;20177;-82
2024/01/19 10:45:35;;;;;;;17.80;9.67;;;-0.60;57.00;;;;;;5057718;28;20175;-80
2024/01/19 10:48:03;;;;;;;18.93;10.40;;;-0.80;99.90;;;;;;5075861;28;20195;-86
2024/01/19 10:50:30;;;;;;;19.63;10.80;;;-0.80;99.90;;;;;;5076847;28;20203;-84
2024/01/19 10:52:58;;;;;;;22.93;11.93;;;-0.70;99.90;;;;;;5059771;28;20179;-84
2024/01/19 10:55:31;;;;;;;20.13;11.20;;;-0.50;99.90;;;;;;5059728;28;20177;-85
2024/01/19 10:58:05;;;;;;;21.20;11.23;;;-0.40;99.90;;;;;;5059365;28;20212;-85
2024/01/19 11:00:31;;;;;;;21.20;11.10;;;1.00;99.90;;;;;;5059658;28;20218;-85
2024/01/19 11:03:02;;;;;;;20.93;11.67;;;0.40;1.00;;;;;;5077011;28;20530;-81
2024/01/19 11:05:28;;;;;;;22.97;11.17;;;0.10;1.00;;;;;;5075711;28;20170;-82
2024/01/19 11:07:57;;;;;;;20.97;11.70;;;-0.30;16.70;;;;;;5057697;28;20220;-85
2024/01/19 11:10:25;;;;;;;21.33;11.73;;;-0.60;99.90;;;;;;5057183;28;20536;-82
2024/01/19 11:12:55;;;;;;;21.50;11.70;;;-0.70;99.90;;;;;;5076427;28;20171;-83
2024/01/19 11:15:48;;;;;;;22.03;12.00;;;-0.90;99.90;;;;;;5058265;28;20176;-83
2024/01/19 11:18:15;;;;;;;24.30;12.67;;;-0.90;99.90;;;;;;5075914;28;20201;-83
2024/01/19 11:20:41;;;;;;;21.57;11.70;;;-0.80;99.90;;;;;;5075992;28;20216;-86
2024/01/19 11:23:07;;;;;;;22.27;11.57;;;-0.70;99.90;;;;;;5058245;28;20271;-83
2024/01/19 11:26:20;;;;;;;20.27;10.23;;;-0.50;99.90;;;;;;5076011;28;20255;-83
2024/01/19 11:28:51;;;;;;;19.60;11.03;;;-0.20;99.90;;;;;;5028687;28;20245;-82
2024/01/19 11:31:25;;;;;;;20.63;11.90;;;-0.30;99.90;;;;;;5058613;28;20183;-86
2024/01/19 11:33:53;;;;;;;21.40;11.33;;;-0.30;99.90;;;;;;5058240;28;20176;-83
2024/01/19 11:36:40;;;;;;;19.37;10.67;;;-0.20;99.90;;;;;;5058273;28;20180;-83
2024/01/19 11:39:07;;;;;;;21.97;11.80;;;-0.10;99.90;;;;;;5058134;28;20180;-83
2024/01/19 11:41:35;;;;;;;23.10;11.80;;;-0.20;99.90;;;;;;5057592;28;20208;-83
2024/01/19 11:44:03;;;;;;;19.73;10.83;;;-0.20;89.20;;;;;;5057353;28;20195;-83
2024/01/19 11:46:44;;;;;;;19.40;10.60;;;-0.20;99.90;;;;;;5075224;28;20177;-83
2024/01/19 11:49:29;;;;;;;18.20;9.73;;;-0.10;99.90;;;;;;5057625;28;20169;-83
2024/01/19 11:51:55;;;;;;;19.50;9.83;;;0.00;44.90;;;;;;5057875;28;20193;-83
2024/01/19 11:54:26;;;;;;;19.43;10.43;;;0.00;1.00;;;;;;5077715;28;20176;-83
2024/01/19 11:56:52;;;;;;;15.87;9.47;;;-0.10;25.00;;;;;;5059065;28;20177;-83
2024/01/19 11:59:21;;;;;;;17.63;9.93;;;0.00;56.90;;;;;;5057362;28;20263;-83
2024/01/19 12:01:46;;;;;;;15.57;9.10;;;0.20;11.80;;;;;;5075253;28;20189;-83
2024/01/19 12:04:14;;;;;;;15.27;8.70;;;0.30;1.00;;;;;;5076151;28;20177;-84
2024/01/19 12:06:40;;;;;;;18.60;8.97;;;0.30;1.00;;;;;;5057260;28;20169;-86
2024/01/19 12:09:07;;;;;;;17.80;8.80;;;0.30;1.00;;;;;;5057699;28;20179;-83
2024/01/19 12:11:33;;;;;;;16.77;8.90;;;0.20;1.00;;;;;;5075435;28;20597;-83
2024/01/19 12:14:03;;;;;;;16.73;10.27;;;0.40;1.00;;;;;;5057614;28;20550;-83
2024/01/19 12:16:29;;;;;;;15.60;9.03;;;0.40;1.00;;;;;;5075391;28;20187;-85
2024/01/19 12:18:55;;;;;;;17.10;9.53;;;0.40;1.00;;;;;;5057311;28;20201;-83
2024/01/19 12:21:21;;;;;;;18.33;10.03;;;0.50;1.00;;;;;;5075478;28;20254;-84
2024/01/19 12:23:55;;;;;;;18.50;9.50;;;0.40;1.00;;;;;;5075210;28;20169;-84
2024/01/19 12:26:21;;;;;;;17.07;9.43;;;0.50;1.00;;;;;;5056898;28;20172;-84
2024/01/19 12:28:51;;;;;;;18.50;9.33;;;0.70;1.00;;;;;;5057410;28;20615;-83